Time;durP1;ratioP1;P1;durP2;ratioP2;P2;SDS_P1;SDS_P2;PMS_P1;PMS_P2;Temp;Humidity;BMP_temperature;BMP_pressure;BME280_temperature;BME280_humidity;BME280_pressure;Samples;Min_cycle;Max_cycle;Signal;HPM_P1;HPM_P2
2023/02/09 00:00:38;;;;;;;57.05;26.73;;;-0.60;99.90;;;;;;4996301;28;20049;-70
2023/02/09 00:03:04;;;;;;;54.78;26.40;;;-0.60;99.90;;;;;;4990660;28;20145;-70
2023/02/09 00:05:30;;;;;;;58.25;27.38;;;-0.60;99.90;;;;;;4996942;28;20101;-70
2023/02/09 00:07:56;;;;;;;62.20;27.98;;;-0.60;99.90;;;;;;4997311;28;20126;-71
2023/02/09 00:10:22;;;;;;;61.47;28.42;;;-0.60;99.90;;;;;;4976025;28;20046;-70
2023/02/09 00:15:32;;;;;;;54.85;26.80;;;-0.60;99.90;;;;;;4999968;28;20379;-71
2023/02/09 00:17:58;;;;;;;60.25;26.15;;;-0.70;99.90;;;;;;4995334;28;20038;-70
2023/02/09 00:20:24;;;;;;;60.53;28.40;;;-0.70;99.90;;;;;;4979329;28;20033;-70
2023/02/09 00:22:49;;;;;;;58.75;27.52;;;-0.70;99.90;;;;;;4979707;28;20026;-71
2023/02/09 00:25:15;;;;;;;51.50;25.88;;;-0.70;99.90;;;;;;4980005;28;20026;-70
2023/02/09 00:27:41;;;;;;;54.53;26.65;;;-0.70;99.90;;;;;;4997381;28;20030;-71
2023/02/09 00:30:07;;;;;;;59.75;27.88;;;-0.70;99.90;;;;;;4999014;28;20106;-71
2023/02/09 00:32:33;;;;;;;60.00;27.33;;;-0.70;99.90;;;;;;4961836;28;20511;-70
2023/02/09 00:34:59;;;;;;;54.38;26.52;;;-0.70;99.90;;;;;;4994248;28;20038;-70
2023/02/09 00:37:24;;;;;;;62.00;27.48;;;-0.80;99.90;;;;;;5000341;28;20045;-70
2023/02/09 00:39:50;;;;;;;56.33;27.02;;;-0.80;99.90;;;;;;4997083;28;20041;-70
2023/02/09 00:42:16;;;;;;;58.40;28.63;;;-0.80;99.90;;;;;;4997778;28;20034;-71
2023/02/09 00:44:41;;;;;;;58.85;27.30;;;-0.80;99.90;;;;;;4997007;28;20109;-71
2023/02/09 00:47:08;;;;;;;58.35;28.23;;;-0.80;99.90;;;;;;4995721;28;20053;-70
2023/02/09 00:49:35;;;;;;;60.53;28.33;;;-0.80;99.90;;;;;;4995803;28;20065;-70
2023/02/09 00:52:01;;;;;;;57.00;28.48;;;-0.80;99.90;;;;;;4977623;28;20028;-70
2023/02/09 00:54:27;;;;;;;62.70;29.80;;;-0.90;99.90;;;;;;4964753;28;20034;-70
2023/02/09 00:56:53;;;;;;;59.83;27.15;;;-0.90;99.90;;;;;;4980200;28;20931;-71
2023/02/09 00:59:19;;;;;;;61.55;29.10;;;-0.90;99.90;;;;;;5001977;28;20505;-70
2023/02/09 01:01:45;;;;;;;62.53;27.67;;;-0.80;99.90;;;;;;4981326;28;20104;-71
2023/02/09 01:04:10;;;;;;;57.80;27.90;;;-0.90;99.90;;;;;;4993803;28;20153;-71
2023/02/09 01:06:36;;;;;;;59.15;28.95;;;-0.90;99.90;;;;;;4992561;28;20489;-70
2023/02/09 01:09:03;;;;;;;56.97;26.88;;;-0.80;99.90;;;;;;4993643;28;20038;-71
2023/02/09 01:11:29;;;;;;;61.30;27.95;;;-0.90;99.90;;;;;;4992925;28;21347;-71
2023/02/09 01:13:56;;;;;;;59.70;26.98;;;-0.90;99.90;;;;;;4997796;28;20408;-71
2023/02/09 01:16:23;;;;;;;62.55;28.92;;;-0.90;99.90;;;;;;4976674;28;20527;-70
2023/02/09 01:18:49;;;;;;;58.55;28.17;;;-0.90;99.90;;;;;;4996293;28;20041;-70
2023/02/09 01:21:18;;;;;;;58.50;26.83;;;-0.90;99.90;;;;;;4992777;28;20405;-70
2023/02/09 01:23:45;;;;;;;63.65;27.67;;;-0.90;99.90;;;;;;4996305;28;20097;-71
2023/02/09 01:26:13;;;;;;;57.60;26.52;;;-0.90;99.90;;;;;;4995640;28;20037;-71
2023/02/09 01:28:39;;;;;;;59.50;27.30;;;-0.90;99.90;;;;;;4978872;28;20033;-71
2023/02/09 01:31:18;;;;;;;64.38;28.40;;;-0.90;99.90;;;;;;4976811;28;20034;-71
2023/02/09 01:33:44;;;;;;;61.55;27.63;;;-0.90;99.90;;;;;;4962064;28;20029;-71
2023/02/09 01:36:10;;;;;;;60.25;27.70;;;-0.90;99.90;;;;;;4979184;28;20122;-71
2023/02/09 01:38:35;;;;;;;58.42;27.15;;;-0.90;99.90;;;;;;4996629;28;20276;-71
2023/02/09 01:41:01;;;;;;;64.45;28.20;;;-0.90;99.90;;;;;;4995541;28;20138;-71
2023/02/09 01:43:27;;;;;;;60.22;27.75;;;-0.90;99.90;;;;;;4981714;28;20030;-71
2023/02/09 01:45:54;;;;;;;54.67;26.50;;;-0.90;99.90;;;;;;4986848;28;20172;-71
2023/02/09 01:48:24;;;;;;;60.50;27.13;;;-0.90;99.90;;;;;;4976121;28;20023;-71
2023/02/09 01:50:56;;;;;;;56.63;26.63;;;-1.00;99.90;;;;;;4994231;28;20080;-71
2023/02/09 01:53:22;;;;;;;60.78;27.35;;;-1.00;99.90;;;;;;4975682;28;20053;-71
2023/02/09 01:56:01;;;;;;;57.92;28.13;;;-1.00;99.90;;;;;;4996581;28;20031;-71
2023/02/09 01:58:27;;;;;;;57.97;26.83;;;-1.00;99.90;;;;;;4994735;28;20034;-71
2023/02/09 02:00:53;;;;;;;61.95;28.15;;;-1.00;99.90;;;;;;4969087;28;20532;-71
2023/02/09 02:03:22;;;;;;;56.45;26.08;;;-1.00;99.90;;;;;;4994130;28;20029;-71
2023/02/09 02:05:52;;;;;;;56.38;26.35;;;-1.00;99.90;;;;;;4976831;28;20401;-71
2023/02/09 02:08:27;;;;;;;57.40;26.90;;;-1.00;99.90;;;;;;4995695;28;20084;-71
2023/02/09 02:10:53;;;;;;;60.70;27.35;;;-1.00;99.90;;;;;;4993730;28;20030;-71
2023/02/09 02:13:19;;;;;;;60.45;28.13;;;-1.00;99.90;;;;;;4974998;28;20089;-71
2023/02/09 02:16:01;;;;;;;58.15;27.48;;;-1.00;99.90;;;;;;4994219;28;20038;-71
2023/02/09 02:18:58;;;;;;;57.47;25.98;;;-1.10;99.90;;;;;;4975589;28;20095;-71
2023/02/09 02:21:36;;;;;;;59.83;26.58;;;-1.10;99.90;;;;;;4940504;28;20069;-71
2023/02/09 02:24:23;;;;;;;53.63;26.23;;;-1.10;99.90;;;;;;4986697;28;20033;-71
2023/02/09 02:26:51;;;;;;;55.53;25.65;;;-1.10;99.90;;;;;;4978799;28;20109;-71
2023/02/09 02:29:47;;;;;;;55.97;25.40;;;-1.10;99.90;;;;;;4994930;28;20061;-71
2023/02/09 02:32:22;;;;;;;64.63;26.50;;;-1.10;99.90;;;;;;4992003;28;20038;-70
2023/02/09 02:34:54;;;;;;;59.35;27.13;;;-1.10;99.90;;;;;;4994619;28;20057;-71
2023/02/09 02:37:29;;;;;;;60.38;26.80;;;-1.20;99.90;;;;;;4976368;28;20030;-71
2023/02/09 02:40:06;;;;;;;57.42;26.55;;;-1.20;99.90;;;;;;4974417;28;20033;-71
2023/02/09 02:42:50;;;;;;;57.15;26.52;;;-1.20;99.90;;;;;;4975705;28;20029;-71
2023/02/09 02:45:41;;;;;;;60.83;27.15;;;-1.20;99.90;;;;;;4977966;28;20153;-71
2023/02/09 02:48:22;;;;;;;;;;;-1.20;99.90;;;;;;4994084;28;20037;-71
2023/02/09 02:51:05;;;;;;;48.80;22.90;;;-1.20;99.90;;;;;;4990599;28;19951;-71
2023/02/09 02:53:35;;;;;;;55.88;25.77;;;-1.20;99.90;;;;;;4996178;28;20058;-71
2023/02/09 02:56:13;;;;;;;52.92;24.77;;;-1.20;99.90;;;;;;4991407;28;20110;-71
2023/02/09 02:58:41;;;;;;;51.45;24.88;;;-1.30;99.90;;;;;;4995745;28;20062;-71
2023/02/09 03:01:10;;;;;;;55.47;25.77;;;-1.30;99.90;;;;;;4992563;28;20089;-71
2023/02/09 03:03:38;;;;;;;57.95;25.52;;;-1.20;99.90;;;;;;4994408;28;20037;-71
2023/02/09 03:06:06;;;;;;;58.88;27.00;;;-1.30;99.90;;;;;;4993254;28;20026;-71
2023/02/09 03:08:54;;;;;;;57.65;25.27;;;-1.20;99.90;;;;;;4994246;28;20445;-71
2023/02/09 03:11:23;;;;;;;60.47;24.88;;;-1.30;99.90;;;;;;4986780;28;20050;-71
2023/02/09 03:14:31;;;;;;;55.88;25.13;;;-1.30;99.90;;;;;;4976925;28;20060;-71
2023/02/09 03:17:21;;;;;;;54.65;25.30;;;-1.30;99.90;;;;;;4992540;28;20137;-71
2023/02/09 03:20:18;;;;;;;53.60;24.88;;;-1.30;99.90;;;;;;4976418;28;20088;-71
2023/02/09 03:22:55;;;;;;;48.97;23.73;;;-1.20;99.90;;;;;;4975236;28;20026;-71
2023/02/09 03:25:33;;;;;;;55.13;25.00;;;-1.30;99.90;;;;;;4988781;28;21525;-71
2023/02/09 03:28:16;;;;;;;56.33;25.48;;;-1.30;99.90;;;;;;4995959;28;20030;-71
2023/02/09 03:30:45;;;;;;;54.60;25.55;;;-1.30;99.90;;;;;;4992354;28;20037;-71
2023/02/09 03:33:19;;;;;;;52.40;25.38;;;-1.30;99.90;;;;;;4978435;28;20037;-71
2023/02/09 03:35:48;;;;;;;54.28;24.70;;;-1.30;99.90;;;;;;4999385;28;20610;-71
2023/02/09 03:38:14;;;;;;;59.20;26.40;;;-1.20;99.90;;;;;;4996629;28;20034;-71
2023/02/09 03:40:39;;;;;;;50.65;25.38;;;-1.20;99.90;;;;;;4999698;28;20019;-71
2023/02/09 03:43:05;;;;;;;53.97;24.50;;;-1.20;99.90;;;;;;4980902;28;20085;-71
2023/02/09 03:45:31;;;;;;;51.85;23.63;;;-1.30;99.90;;;;;;4996479;28;20036;-71
2023/02/09 03:47:57;;;;;;;50.05;23.83;;;-1.20;99.90;;;;;;5005055;28;20034;-71
2023/02/09 03:50:22;;;;;;;53.60;25.70;;;-1.20;99.90;;;;;;4983352;28;20470;-71
2023/02/09 03:52:49;;;;;;;51.53;24.00;;;-1.20;99.90;;;;;;4976602;28;20042;-71
2023/02/09 03:55:15;;;;;;;51.88;23.33;;;-1.30;99.90;;;;;;4979116;28;20022;-71
2023/02/09 03:57:41;;;;;;;50.22;23.25;;;-1.20;99.90;;;;;;4998940;28;20034;-71
2023/02/09 04:00:07;;;;;;;48.13;23.67;;;-1.30;99.90;;;;;;4973463;28;20041;-70
2023/02/09 04:02:33;;;;;;;54.25;24.00;;;-1.30;99.90;;;;;;4976975;28;20469;-71
2023/02/09 04:04:59;;;;;;;49.80;24.20;;;-1.30;99.90;;;;;;4979162;28;20038;-71
2023/02/09 04:07:24;;;;;;;54.30;24.42;;;-1.30;99.90;;;;;;4977645;28;20112;-71
2023/02/09 04:09:50;;;;;;;53.20;24.30;;;-1.30;99.90;;;;;;4996065;28;20042;-71
2023/02/09 04:12:16;;;;;;;53.50;24.45;;;-1.30;99.90;;;;;;4963494;28;20032;-71
2023/02/09 04:14:42;;;;;;;47.88;23.42;;;-1.30;99.90;;;;;;4998682;28;20025;-70
2023/02/09 04:17:07;;;;;;;56.25;23.70;;;-1.30;99.90;;;;;;4995148;28;20045;-71
2023/02/09 04:19:33;;;;;;;44.70;22.00;;;-1.30;99.90;;;;;;4995489;28;20037;-71
2023/02/09 04:21:59;;;;;;;52.55;24.50;;;-1.30;99.90;;;;;;4981349;28;20062;-71
2023/02/09 04:24:26;;;;;;;49.03;23.40;;;-1.30;99.90;;;;;;4995018;28;20034;-71
2023/02/09 04:26:52;;;;;;;54.50;22.70;;;-1.30;99.90;;;;;;4979891;28;20485;-71
2023/02/09 04:29:17;;;;;;;46.83;23.33;;;-1.30;99.90;;;;;;4994710;28;20038;-69
2023/02/09 04:31:43;;;;;;;47.28;22.15;;;-1.30;99.90;;;;;;4992977;28;20033;-71
2023/02/09 04:34:09;;;;;;;43.67;21.00;;;-1.30;99.90;;;;;;4996211;28;20071;-71
2023/02/09 04:36:34;;;;;;;47.67;22.33;;;-1.30;99.90;;;;;;4978454;28;20093;-71
2023/02/09 04:39:01;;;;;;;47.55;20.50;;;-1.30;99.90;;;;;;4977422;28;20560;-71
2023/02/09 04:41:27;;;;;;;45.78;22.45;;;-1.30;99.90;;;;;;4977982;28;20037;-71
2023/02/09 04:43:53;;;;;;;48.22;21.80;;;-1.30;99.90;;;;;;4977468;28;20038;-70
2023/02/09 04:46:19;;;;;;;44.70;20.35;;;-1.30;99.90;;;;;;4992324;28;20045;-71
2023/02/09 04:48:46;;;;;;;48.72;22.52;;;-1.30;99.90;;;;;;4979327;28;20030;-71
2023/02/09 04:51:12;;;;;;;47.35;21.05;;;-1.30;99.90;;;;;;4977291;28;20441;-70
2023/02/09 04:53:38;;;;;;;41.80;19.98;;;-1.30;99.90;;;;;;4980379;28;20034;-71
2023/02/09 04:56:04;;;;;;;44.80;20.77;;;-1.30;99.90;;;;;;4980941;28;20037;-71
2023/02/09 05:01:21;;;;;;;45.40;19.05;;;-1.30;99.90;;;;;;4993602;28;20506;-70
2023/02/09 05:03:47;;;;;;;42.65;19.63;;;-1.30;99.90;;;;;;4998400;28;20032;-71
2023/02/09 05:06:13;;;;;;;39.38;18.15;;;-1.30;99.90;;;;;;4979390;28;20029;-71
2023/02/09 05:08:39;;;;;;;40.17;20.58;;;-1.20;99.90;;;;;;4992412;28;20038;-71
2023/02/09 05:11:05;;;;;;;37.10;17.88;;;-1.20;99.90;;;;;;4979767;28;20031;-70
2023/02/09 05:13:31;;;;;;;39.72;18.63;;;-1.20;99.90;;;;;;5003334;28;20038;-70
2023/02/09 05:15:58;;;;;;;39.38;17.60;;;-1.20;99.90;;;;;;4997547;28;20516;-71
2023/02/09 05:18:24;;;;;;;37.30;17.60;;;-1.20;99.90;;;;;;4979020;28;20156;-70
2023/02/09 05:20:51;;;;;;;37.53;16.35;;;-1.10;99.90;;;;;;4975471;28;20445;-71
2023/02/09 05:23:17;;;;;;;33.50;16.98;;;-1.20;99.90;;;;;;4987478;28;20022;-71
2023/02/09 05:25:44;;;;;;;35.58;16.38;;;-1.10;99.90;;;;;;4994940;28;20100;-72
2023/02/09 05:28:10;;;;;;;34.92;15.93;;;-1.10;99.90;;;;;;4995338;28;20069;-71
2023/02/09 05:30:36;;;;;;;33.63;15.63;;;-1.10;99.90;;;;;;4987229;28;20058;-71
2023/02/09 05:33:03;;;;;;;34.85;15.18;;;-1.10;99.90;;;;;;4977130;28;20099;-70
2023/02/09 05:35:29;;;;;;;26.20;14.00;;;-1.10;99.90;;;;;;4997235;28;20096;-70
2023/02/09 05:37:55;;;;;;;27.60;12.73;;;-1.10;99.90;;;;;;4979454;28;20113;-71
2023/02/09 05:40:20;;;;;;;27.73;12.30;;;-1.00;99.90;;;;;;4992493;28;20033;-71
2023/02/09 05:42:46;;;;;;;23.95;12.00;;;-1.00;99.90;;;;;;4981411;28;20038;-70
2023/02/09 05:45:12;;;;;;;22.58;10.32;;;-0.90;99.90;;;;;;4988979;28;20034;-71
2023/02/09 05:47:38;;;;;;;25.80;11.07;;;-0.90;99.90;;;;;;4992137;28;20093;-71
2023/02/09 05:50:05;;;;;;;19.08;8.88;;;-0.80;99.90;;;;;;4975158;28;20778;-70
2023/02/09 05:52:30;;;;;;;21.77;9.77;;;-0.80;99.90;;;;;;4992222;28;20030;-71
2023/02/09 05:54:56;;;;;;;19.60;9.27;;;-0.70;99.90;;;;;;4977900;28;20030;-71
2023/02/09 05:57:22;;;;;;;20.42;9.75;;;-0.60;99.90;;;;;;4986045;28;20034;-71
2023/02/09 05:59:47;;;;;;;23.23;10.25;;;-0.50;99.90;;;;;;4975934;28;20469;-71
2023/02/09 06:02:14;;;;;;;21.80;9.63;;;-0.40;99.90;;;;;;4992680;28;20544;-71
2023/02/09 06:04:39;;;;;;;21.42;10.43;;;-0.30;99.90;;;;;;4994814;28;20030;-70
2023/02/09 06:07:05;;;;;;;19.73;9.27;;;-0.30;99.90;;;;;;4990222;28;20041;-70
2023/02/09 06:09:31;;;;;;;21.83;9.63;;;-0.30;99.90;;;;;;4979739;28;20480;-71
2023/02/09 06:11:57;;;;;;;21.23;9.65;;;-0.30;99.90;;;;;;4975816;28;20401;-71
2023/02/09 06:14:23;;;;;;;21.33;10.88;;;-0.30;99.90;;;;;;4971282;28;20037;-70
2023/02/09 06:16:49;;;;;;;22.88;9.93;;;-0.30;99.90;;;;;;4966712;28;20038;-71
2023/02/09 06:19:17;;;;;;;26.13;10.02;;;-0.20;99.90;;;;;;4976266;28;20026;-71
2023/02/09 06:21:44;;;;;;;19.85;10.23;;;-0.30;99.90;;;;;;4992083;28;20046;-71
2023/02/09 06:24:10;;;;;;;23.10;10.32;;;-0.30;99.90;;;;;;4971209;28;20034;-71
2023/02/09 06:26:36;;;;;;;23.08;10.32;;;-0.30;99.90;;;;;;4964611;28;20026;-72
2023/02/09 06:29:02;;;;;;;23.25;11.30;;;-0.30;99.90;;;;;;4968201;28;20040;-71
2023/02/09 06:31:28;;;;;;;21.80;10.13;;;-0.40;99.90;;;;;;4985150;28;20026;-71
2023/02/09 06:33:54;;;;;;;20.17;9.95;;;-0.40;99.90;;;;;;4976059;28;20037;-72
2023/02/09 06:36:19;;;;;;;22.58;10.48;;;-0.40;99.90;;;;;;4975559;28;20033;-71
2023/02/09 06:38:45;;;;;;;23.38;10.40;;;-0.30;99.90;;;;;;4975166;28;20099;-71
2023/02/09 06:41:11;;;;;;;26.00;10.50;;;-0.30;99.90;;;;;;4987780;28;20023;-70
2023/02/09 06:43:37;;;;;;;27.20;10.50;;;-0.30;99.90;;;;;;4969743;28;20088;-70
2023/02/09 06:46:08;;;;;;;20.45;10.27;;;-0.30;99.90;;;;;;4988885;28;20023;-69
2023/02/09 06:48:34;;;;;;;21.30;10.55;;;-0.20;99.90;;;;;;4987536;28;20986;-70
2023/02/09 06:51:00;;;;;;;24.38;10.35;;;-0.20;99.90;;;;;;4974121;28;20043;-70
2023/02/09 06:53:26;;;;;;;21.50;10.77;;;-0.30;99.90;;;;;;4959129;28;20393;-69
2023/02/09 06:55:51;;;;;;;24.48;11.05;;;-0.30;99.90;;;;;;4975439;28;20038;-71
2023/02/09 06:58:17;;;;;;;20.73;9.65;;;-0.30;99.90;;;;;;4991600;28;20597;-71
2023/02/09 07:00:43;;;;;;;25.10;11.13;;;-0.20;99.90;;;;;;4987942;28;20104;-71
2023/02/09 07:03:09;;;;;;;24.13;10.82;;;-0.20;99.90;;;;;;4989714;28;20121;-71
2023/02/09 07:05:36;;;;;;;23.90;10.75;;;-0.20;99.90;;;;;;4974321;28;20050;-71
2023/02/09 07:08:02;;;;;;;19.10;9.63;;;-0.10;99.90;;;;;;4996174;28;20076;-71
2023/02/09 07:10:28;;;;;;;23.08;10.85;;;-0.10;99.90;;;;;;4996573;28;20117;-71
2023/02/09 07:12:57;;;;;;;23.40;10.80;;;-0.20;99.90;;;;;;4979667;28;20036;-70
2023/02/09 07:15:23;;;;;;;21.60;9.50;;;-0.20;99.90;;;;;;4987265;28;20034;-71
2023/02/09 07:17:48;;;;;;;21.83;10.40;;;-0.20;99.90;;;;;;4990331;28;20034;-71
2023/02/09 07:20:14;;;;;;;21.50;10.75;;;-0.10;99.90;;;;;;4958541;28;20033;-70
2023/02/09 07:22:40;;;;;;;26.38;10.75;;;-0.10;99.90;;;;;;4976423;28;20026;-71
2023/02/09 07:25:06;;;;;;;25.50;9.95;;;-0.10;99.90;;;;;;4958429;28;20023;-71
2023/02/09 07:27:32;;;;;;;25.48;10.55;;;-0.10;99.90;;;;;;4990236;28;20112;-70
2023/02/09 07:29:57;;;;;;;25.35;11.25;;;-0.20;99.90;;;;;;4978376;28;20413;-71
2023/02/09 07:32:23;;;;;;;23.08;10.95;;;-0.20;99.90;;;;;;4994281;28;20097;-71
2023/02/09 07:34:49;;;;;;;21.38;10.32;;;-0.10;99.90;;;;;;4999293;28;20532;-71
2023/02/09 07:37:15;;;;;;;24.13;11.07;;;-0.10;99.90;;;;;;4967164;28;21154;-71
2023/02/09 07:39:40;;;;;;;24.02;11.23;;;-0.10;99.90;;;;;;4981497;28;20042;-72
2023/02/09 07:42:06;;;;;;;25.33;9.95;;;-0.10;99.90;;;;;;4995464;28;20022;-72
2023/02/09 07:44:32;;;;;;;22.60;9.55;;;0.00;99.90;;;;;;4990031;28;20037;-71
2023/02/09 07:46:57;;;;;;;23.80;10.05;;;-0.10;99.90;;;;;;4988102;28;20026;-71
2023/02/09 07:49:23;;;;;;;22.42;10.57;;;0.00;99.90;;;;;;4994830;28;20062;-71
2023/02/09 07:51:49;;;;;;;26.08;11.25;;;0.00;99.90;;;;;;4999275;28;20037;-71
2023/02/09 07:54:15;;;;;;;25.38;10.60;;;0.00;99.90;;;;;;4977135;28;20088;-70
2023/02/09 07:56:41;;;;;;;20.52;9.77;;;0.00;99.90;;;;;;4977694;28;20026;-71
2023/02/09 07:59:06;;;;;;;30.35;11.45;;;0.00;99.90;;;;;;4997193;28;20046;-71
2023/02/09 08:01:33;;;;;;;21.00;9.73;;;0.00;99.90;;;;;;4990277;28;20030;-71
2023/02/09 08:03:59;;;;;;;22.88;10.05;;;0.10;99.90;;;;;;4980741;28;20104;-71
2023/02/09 08:06:35;;;;;;;20.98;10.25;;;0.00;99.90;;;;;;4960440;28;20021;-71
2023/02/09 08:09:02;;;;;;;27.13;10.18;;;0.10;99.90;;;;;;4975576;28;20112;-70
2023/02/09 08:11:51;;;;;;;19.77;10.30;;;0.10;99.90;;;;;;4978285;28;20026;-71
2023/02/09 08:14:24;;;;;;;20.80;9.50;;;0.10;99.90;;;;;;4995719;28;20033;-71
2023/02/09 08:17:18;;;;;;;19.95;9.52;;;0.20;99.90;;;;;;4974878;28;20103;-71
2023/02/09 08:19:44;;;;;;;22.95;9.30;;;0.20;99.90;;;;;;4991461;28;20485;-70
2023/02/09 08:22:10;;;;;;;20.23;10.07;;;0.20;99.90;;;;;;4996613;28;20036;-71
2023/02/09 08:24:36;;;;;;;21.23;10.07;;;0.20;99.90;;;;;;4974375;28;20097;-71
2023/02/09 08:27:02;;;;;;;21.05;9.70;;;0.20;99.90;;;;;;4977258;28;20454;-72
2023/02/09 08:29:28;;;;;;;27.08;12.18;;;0.20;99.90;;;;;;4978315;28;20030;-69
2023/02/09 08:31:54;;;;;;;21.95;9.75;;;0.30;99.90;;;;;;4991569;28;20553;-72
2023/02/09 08:34:19;;;;;;;23.52;10.05;;;0.30;99.90;;;;;;4971654;28;20141;-70
2023/02/09 08:36:45;;;;;;;24.80;10.88;;;0.30;99.90;;;;;;4968757;28;20710;-71
2023/02/09 08:39:11;;;;;;;19.27;10.50;;;0.30;99.90;;;;;;4978691;28;20406;-69
2023/02/09 08:41:37;;;;;;;23.80;10.88;;;0.40;99.90;;;;;;4996225;28;20036;-70
2023/02/09 08:44:03;;;;;;;19.90;10.13;;;0.40;99.90;;;;;;4995661;28;20371;-70
2023/02/09 08:46:29;;;;;;;22.60;10.38;;;0.40;99.90;;;;;;4983473;28;20032;-71
2023/02/09 08:48:55;;;;;;;24.05;10.30;;;0.40;99.90;;;;;;4998422;28;20034;-70
2023/02/09 08:51:20;;;;;;;19.23;9.88;;;0.40;99.90;;;;;;4991722;28;20402;-70
2023/02/09 08:53:50;;;;;;;23.55;10.35;;;0.50;99.90;;;;;;4993416;28;20030;-70
2023/02/09 08:56:21;;;;;;;23.17;10.05;;;0.50;99.90;;;;;;4993046;28;20034;-70
2023/02/09 08:58:47;;;;;;;21.70;10.55;;;0.60;99.90;;;;;;4979292;28;20281;-71
2023/02/09 09:01:13;;;;;;;22.10;9.65;;;0.60;99.90;;;;;;4974852;28;20783;-70
2023/02/09 09:03:41;;;;;;;21.80;9.15;;;0.60;99.90;;;;;;4979393;28;20419;-70
2023/02/09 09:06:08;;;;;;;23.33;10.27;;;0.70;99.90;;;;;;4976643;28;20038;-70
2023/02/09 09:08:36;;;;;;;18.35;9.77;;;0.70;99.90;;;;;;4997218;28;20390;-70
2023/02/09 09:11:03;;;;;;;21.42;10.02;;;0.60;99.90;;;;;;4988819;28;20033;-70
2023/02/09 09:13:28;;;;;;;21.13;9.13;;;0.60;99.90;;;;;;4992186;28;20026;-70
2023/02/09 09:15:55;;;;;;;27.25;12.73;;;0.70;99.90;;;;;;4957078;28;20043;-70
2023/02/09 09:18:21;;;;;;;19.83;9.98;;;0.80;99.90;;;;;;4976747;28;20036;-69
2023/02/09 09:20:48;;;;;;;18.95;8.98;;;0.80;99.90;;;;;;4976779;28;20117;-70
2023/02/09 09:23:13;;;;;;;22.45;10.05;;;0.90;99.90;;;;;;4980377;28;20022;-70
2023/02/09 09:25:40;;;;;;;18.67;10.07;;;0.90;99.90;;;;;;4999062;28;20500;-70
2023/02/09 09:28:07;;;;;;;21.15;9.68;;;0.90;99.90;;;;;;4978182;28;20025;-69
2023/02/09 09:30:33;;;;;;;20.33;9.38;;;1.00;99.90;;;;;;4997684;28;20045;-70
2023/02/09 09:32:59;;;;;;;18.60;8.95;;;0.90;99.90;;;;;;4976914;28;20078;-70
2023/02/09 09:35:26;;;;;;;18.95;10.20;;;1.00;99.90;;;;;;4996315;28;20104;-70
2023/02/09 09:37:55;;;;;;;17.90;9.75;;;1.00;99.90;;;;;;4968942;28;20030;-70
2023/02/09 09:40:29;;;;;;;18.80;9.35;;;1.10;99.90;;;;;;4996549;28;20516;-70
2023/02/09 09:43:01;;;;;;;17.75;9.45;;;1.10;99.90;;;;;;4993884;28;20034;-70
2023/02/09 09:45:30;;;;;;;21.98;9.63;;;1.20;99.90;;;;;;4979495;28;20096;-70
2023/02/09 09:47:56;;;;;;;18.17;9.52;;;1.20;99.90;;;;;;4993133;28;20423;-70
2023/02/09 09:50:35;;;;;;;19.00;10.05;;;1.20;99.90;;;;;;4996889;28;20034;-69
2023/02/09 09:53:11;;;;;;;18.17;9.48;;;1.30;99.90;;;;;;4996164;28;20045;-70
2023/02/09 09:55:38;;;;;;;21.05;9.85;;;1.40;99.90;;;;;;4992740;28;20058;-70
2023/02/09 09:58:06;;;;;;;18.48;8.77;;;1.40;99.90;;;;;;4975033;28;20516;-70
2023/02/09 10:00:38;;;;;;;17.38;8.43;;;1.50;99.90;;;;;;4992815;28;20033;-70
2023/02/09 10:03:14;;;;;;;20.23;9.13;;;1.50;99.90;;;;;;4994827;28;20153;-70
2023/02/09 10:05:40;;;;;;;18.52;9.90;;;1.60;99.90;;;;;;4995954;28;20037;-70
2023/02/09 10:08:24;;;;;;;18.38;8.75;;;1.60;99.90;;;;;;4990616;28;20045;-70
2023/02/09 10:11:10;;;;;;;20.13;9.95;;;1.70;99.90;;;;;;4993385;28;20037;-72
2023/02/09 10:13:57;;;;;;;19.10;9.50;;;1.70;99.90;;;;;;4957336;28;20038;-70
2023/02/09 10:16:26;;;;;;;18.70;9.18;;;1.80;99.90;;;;;;4988311;28;20031;-70
2023/02/09 10:18:58;;;;;;;18.30;9.20;;;1.80;99.90;;;;;;4958683;28;20051;-71
2023/02/09 10:21:28;;;;;;;17.73;9.45;;;1.90;99.90;;;;;;4971715;28;20493;-71
2023/02/09 10:24:00;;;;;;;;;;;1.90;99.90;;;;;;4977933;28;20030;-71
2023/02/09 10:26:35;;;;;;;23.00;10.40;;;1.90;99.90;;;;;;4993539;28;20357;-71
2023/02/09 10:29:10;;;;;;;20.02;9.10;;;1.90;99.90;;;;;;4958716;28;20409;-71
2023/02/09 10:32:13;;;;;;;18.98;10.18;;;2.00;99.90;;;;;;4973350;28;20033;-71
2023/02/09 10:34:41;;;;;;;19.80;9.45;;;2.10;99.90;;;;;;4980116;28;20452;-71
2023/02/09 10:37:20;;;;;;;15.70;8.82;;;2.10;99.90;;;;;;4977661;28;20039;-71
2023/02/09 10:39:54;;;;;;;20.80;9.48;;;2.20;99.90;;;;;;4979263;28;20022;-71
2023/02/09 10:42:31;;;;;;;21.77;9.10;;;2.30;99.90;;;;;;4990945;28;20037;-71
2023/02/09 10:45:25;;;;;;;21.95;9.98;;;2.30;99.90;;;;;;4996210;28;20548;-72
2023/02/09 10:48:10;;;;;;;18.75;9.52;;;2.40;99.90;;;;;;5000964;28;20019;-76
2023/02/09 10:50:55;;;;;;;18.55;9.13;;;2.40;99.90;;;;;;4985146;28;20037;-71
2023/02/09 10:53:30;;;;;;;17.45;8.75;;;2.40;99.90;;;;;;4967077;28;20034;-72
2023/02/09 10:56:16;;;;;;;23.60;9.18;;;2.50;99.90;;;;;;5006868;28;20080;-72
2023/02/09 10:58:50;;;;;;;18.45;8.63;;;2.60;99.90;;;;;;4995020;28;20445;-71
2023/02/09 11:01:21;;;;;;;21.95;9.70;;;2.60;99.90;;;;;;4998307;28;20022;-70
2023/02/09 11:04:03;;;;;;;18.33;9.85;;;2.70;99.90;;;;;;4999693;28;20021;-71
2023/02/09 11:06:53;;;;;;;18.50;8.68;;;2.70;99.90;;;;;;5003647;28;20089;-71
2023/02/09 11:09:27;;;;;;;15.82;9.07;;;2.70;99.90;;;;;;5000255;28;20064;-71
2023/02/09 11:11:54;;;;;;;19.45;8.90;;;2.80;99.90;;;;;;4967721;28;20044;-71
2023/02/09 11:14:20;;;;;;;17.38;9.68;;;2.80;99.90;;;;;;4980990;28;20100;-71
2023/02/09 11:17:03;;;;;;;18.55;8.85;;;2.90;99.90;;;;;;4964931;28;20417;-70
2023/02/09 11:19:53;;;;;;;17.95;9.45;;;3.00;99.90;;;;;;4977959;28;20451;-71
2023/02/09 11:22:50;;;;;;;17.95;9.27;;;3.10;99.90;;;;;;4981231;28;20033;-72
2023/02/09 11:25:23;;;;;;;15.38;8.48;;;3.30;99.90;;;;;;4966754;28;20042;-71
2023/02/09 11:28:11;;;;;;;15.77;8.50;;;3.30;99.90;;;;;;4975258;28;20233;-70
2023/02/09 11:30:46;;;;;;;15.98;9.05;;;3.40;99.90;;;;;;4994118;28;20035;-72
2023/02/09 11:33:37;;;;;;;17.23;9.07;;;3.40;99.90;;;;;;4972479;28;20116;-74
2023/02/09 11:36:24;;;;;;;19.05;9.02;;;3.30;99.90;;;;;;4960462;28;20042;-74
2023/02/09 11:39:00;;;;;;;18.85;9.90;;;3.40;99.90;;;;;;4987113;28;20070;-74
2023/02/09 11:44:46;;;;;;;17.55;8.90;;;3.30;99.90;;;;;;4992961;28;20086;-73
2023/02/09 11:47:22;;;;;;;18.52;9.23;;;3.30;99.90;;;;;;4987532;28;20030;-74
2023/02/09 11:49:51;;;;;;;17.58;8.95;;;3.40;99.90;;;;;;4955523;28;20121;-75
2023/02/09 11:52:37;;;;;;;17.33;8.85;;;3.40;99.90;;;;;;4973904;28;20395;-74
2023/02/09 11:55:26;;;;;;;17.42;9.15;;;3.50;99.90;;;;;;4972691;28;20031;-74
2023/02/09 11:58:18;;;;;;;15.80;8.68;;;3.50;99.90;;;;;;4979705;28;20262;-74
2023/02/09 12:00:57;;;;;;;18.88;9.05;;;3.50;99.90;;;;;;4952878;28;20529;-73
2023/02/09 12:03:22;;;;;;;14.65;8.02;;;3.70;99.90;;;;;;4974504;28;20049;-74
2023/02/09 12:05:50;;;;;;;18.35;9.73;;;3.60;99.90;;;;;;4977927;28;20031;-74
2023/02/09 12:08:31;;;;;;;18.80;9.13;;;3.60;99.90;;;;;;4992437;28;20042;-74
2023/02/09 12:11:09;;;;;;;18.02;9.55;;;3.60;99.90;;;;;;4997481;28;20036;-74
2023/02/09 12:13:50;;;;;;;15.48;9.00;;;3.60;99.90;;;;;;4993205;28;20542;-74
2023/02/09 12:16:20;;;;;;;15.45;8.40;;;3.60;99.90;;;;;;4986551;28;20030;-75
2023/02/09 12:18:46;;;;;;;17.13;9.32;;;3.70;99.90;;;;;;4982678;28;20061;-75
2023/02/09 12:21:12;;;;;;;20.50;9.32;;;3.60;99.90;;;;;;4998664;28;20026;-74
2023/02/09 12:23:40;;;;;;;20.33;9.55;;;3.60;99.90;;;;;;4995087;28;20669;-74
2023/02/09 12:26:15;;;;;;;16.45;8.52;;;3.60;99.90;;;;;;4985188;28;20169;-74
2023/02/09 12:28:45;;;;;;;18.95;9.45;;;3.50;99.90;;;;;;4996115;28;20053;-74
2023/02/09 12:31:16;;;;;;;19.50;9.70;;;3.60;99.90;;;;;;4994192;28;20026;-75
2023/02/09 12:33:44;;;;;;;17.92;9.27;;;3.60;99.90;;;;;;4988237;28;20030;-76
2023/02/09 12:36:13;;;;;;;17.00;8.60;;;3.70;99.90;;;;;;4990817;28;20061;-74
2023/02/09 12:38:51;;;;;;;17.45;9.43;;;3.70;99.90;;;;;;4971455;28;20136;-73
2023/02/09 12:41:24;;;;;;;17.73;9.02;;;3.70;99.90;;;;;;4978119;28;20045;-75
2023/02/09 12:44:03;;;;;;;21.27;10.27;;;3.60;99.90;;;;;;4975199;28;21427;-71
2023/02/09 12:46:29;;;;;;;18.63;10.32;;;3.70;99.90;;;;;;4962793;28;20030;-71
2023/02/09 12:49:12;;;;;;;20.95;11.10;;;3.70;99.90;;;;;;4998810;28;20559;-72
2023/02/09 12:51:53;;;;;;;17.50;9.23;;;3.50;99.90;;;;;;4978743;28;20026;-69
2023/02/09 12:54:43;;;;;;;20.55;9.93;;;3.50;99.90;;;;;;4993917;28;20053;-71
2023/02/09 12:57:15;;;;;;;23.67;8.93;;;3.40;99.90;;;;;;4988132;28;20395;-69
2023/02/09 12:59:52;;;;;;;21.80;10.80;;;3.40;99.90;;;;;;4994859;28;20022;-70